createdAt,value
2019-04-03T00:03:10.825Z,12.00
2019-04-03T00:08:13.380Z,12.40
2019-04-03T00:13:15.902Z,14.07
2019-04-03T00:18:18.438Z,13.90
2019-04-03T00:23:22.426Z,13.63
2019-04-03T00:28:23.536Z,14.03
2019-04-03T00:33:26.115Z,13.53
2019-04-03T00:38:31.167Z,13.57
2019-04-03T00:43:33.728Z,13.93
2019-04-03T00:48:36.160Z,12.63
2019-04-03T00:53:38.677Z,11.33
2019-04-03T00:58:41.728Z,10.60
2019-04-03T01:03:44.382Z,11.70
2019-04-03T01:08:46.951Z,11.70
2019-04-03T01:13:49.533Z,11.57
2019-04-03T01:18:52.115Z,11.40
2019-04-03T01:23:54.757Z,11.63
2019-04-03T01:28:57.237Z,13.20
2019-04-03T01:33:59.800Z,12.50
2019-04-03T01:39:02.658Z,13.03
2019-04-03T01:44:05.025Z,11.33
2019-04-03T01:49:07.759Z,12.17
2019-04-03T01:54:10.425Z,10.03
2019-04-03T01:59:12.893Z,11.63
2019-04-03T02:04:16.030Z,12.17
2019-04-03T02:09:18.544Z,12.30
2019-04-03T02:14:22.131Z,11.73
2019-04-03T02:19:25.747Z,12.13
2019-04-03T02:24:26.278Z,11.43
2019-04-03T02:29:28.811Z,12.10
2019-04-03T02:34:33.694Z,11.10
2019-04-03T02:39:33.814Z,13.47
2019-04-03T02:44:36.361Z,12.17
2019-04-03T02:49:41.501Z,13.13
2019-04-03T02:54:41.582Z,12.30
2019-04-03T02:59:44.105Z,13.63
2019-04-03T03:04:46.699Z,12.50
2019-04-03T03:09:49.605Z,13.10
2019-04-03T03:14:52.589Z,11.73
2019-04-03T03:19:54.886Z,12.30
2019-04-03T03:24:59.693Z,12.63
2019-04-03T03:30:00.357Z,13.27
2019-04-03T03:35:12.472Z,13.57
2019-04-03T03:40:05.548Z,14.47
2019-04-03T03:45:08.169Z,12.67
2019-04-03T03:50:10.806Z,13.17
2019-04-03T03:55:13.442Z,11.87
2019-04-03T04:00:16.136Z,12.13
2019-04-03T04:05:21.654Z,12.27
2019-04-03T04:10:24.412Z,13.53
2019-04-03T04:15:28.724Z,12.20
2019-04-03T04:20:27.344Z,14.17
2019-04-03T04:25:30.954Z,12.43
2019-04-03T04:30:32.644Z,14.23
2019-04-03T04:35:35.318Z,13.90
2019-04-03T04:40:37.887Z,15.37
2019-04-03T04:45:42.208Z,11.93
2019-04-03T04:50:43.197Z,17.20
2019-04-03T04:55:45.723Z,13.27
2019-04-03T05:00:48.325Z,13.50
2019-04-03T05:05:50.856Z,14.07
2019-04-03T05:10:53.396Z,12.43
2019-04-03T05:15:55.958Z,13.03
2019-04-03T05:20:58.771Z,12.53
2019-04-03T05:26:02.065Z,13.00
2019-04-03T05:31:03.936Z,13.80
2019-04-03T05:36:06.699Z,13.10
2019-04-03T05:41:09.476Z,12.37
2019-04-03T05:46:11.922Z,14.13
2019-04-03T05:51:14.484Z,14.10
2019-04-03T05:56:17.297Z,12.47
2019-04-03T06:01:19.577Z,11.77
2019-04-03T06:06:22.227Z,13.07
2019-04-03T06:11:24.844Z,11.70
2019-04-03T06:16:27.490Z,13.37
2019-04-03T06:21:30.168Z,13.63
2019-04-03T06:26:32.872Z,12.90
2019-04-03T06:31:35.406Z,14.60
2019-04-03T06:36:37.759Z,13.63
2019-04-03T06:41:41.931Z,13.17
2019-04-03T06:46:42.951Z,15.13
2019-04-03T06:51:45.702Z,15.13
2019-04-03T06:56:48.237Z,14.40
2019-04-03T07:01:52.818Z,18.20
2019-04-03T07:06:55.769Z,14.70
2019-04-03T07:11:57.400Z,18.83
2019-04-03T07:17:00.700Z,13.87
2019-04-03T07:22:01.298Z,13.63
2019-04-03T07:27:05.977Z,12.70
2019-04-03T07:32:06.450Z,12.73
2019-04-03T07:37:09.015Z,11.93
2019-04-03T07:42:11.727Z,12.67
2019-04-03T07:47:14.226Z,12.67
2019-04-03T07:52:17.834Z,13.17
2019-04-03T07:57:19.511Z,12.33
2019-04-03T08:02:22.404Z,13.47
2019-04-03T08:07:24.763Z,11.67
2019-04-03T08:12:27.363Z,11.60
2019-04-03T08:17:29.902Z,11.97
2019-04-03T08:22:33.366Z,12.60
2019-04-03T08:27:35.117Z,10.67
2019-04-03T08:32:40.324Z,8.70
2019-04-03T08:37:43.591Z,8.60
2019-04-03T08:42:46.735Z,10.30
2019-04-03T08:47:49.283Z,11.63
2019-04-03T08:52:52.267Z,9.93
2019-04-03T08:57:57.982Z,8.63
2019-04-03T09:03:03.588Z,9.37
2019-04-03T09:08:05.937Z,7.97
2019-04-03T09:13:16.771Z,10.77
2019-04-03T09:18:11.150Z,7.17
2019-04-03T09:23:13.681Z,9.27
2019-04-03T09:28:16.281Z,9.10
2019-04-03T09:33:18.856Z,9.97
2019-04-03T09:38:21.760Z,11.47
2019-04-03T09:43:24.203Z,13.07
2019-04-03T09:48:26.802Z,13.97
2019-04-03T09:53:29.531Z,13.53
2019-04-03T09:58:32.914Z,12.50
2019-04-03T10:03:34.876Z,12.57
2019-04-03T10:08:38.091Z,13.07
2019-04-03T10:13:39.966Z,12.93
2019-04-03T10:18:42.996Z,12.77
2019-04-03T10:23:45.160Z,15.20
2019-04-03T10:28:48.352Z,15.13
2019-04-03T10:33:50.772Z,15.37
2019-04-03T10:38:53.015Z,14.57
2019-04-03T10:43:55.600Z,15.30
2019-04-03T10:49:00.513Z,14.20
2019-04-03T10:54:00.928Z,15.23
2019-04-03T10:59:10.723Z,16.83
2019-04-03T11:04:06.664Z,15.00
2019-04-03T11:09:09.419Z,12.97
2019-04-03T11:14:11.985Z,14.10
2019-04-03T11:19:14.740Z,15.90
2019-04-03T11:24:17.212Z,16.73
2019-04-03T11:29:19.829Z,15.23
2019-04-03T11:34:22.435Z,16.77
2019-04-03T11:39:25.311Z,16.43
2019-04-03T11:44:27.705Z,16.83
2019-04-03T11:49:30.361Z,14.00
2019-04-03T11:54:32.905Z,13.30
2019-04-03T11:59:35.871Z,14.90
2019-04-03T12:04:38.111Z,11.83
2019-04-03T12:09:40.737Z,9.93
2019-04-03T12:14:43.465Z,14.07
2019-04-03T12:19:46.177Z,10.90
2019-04-03T12:24:48.566Z,9.20
2019-04-03T12:29:51.992Z,9.70
2019-04-03T12:34:53.663Z,10.37
2019-04-03T12:39:56.313Z,9.30
2019-04-03T12:44:58.820Z,11.80
2019-04-03T12:50:01.438Z,10.20
2019-04-03T12:55:05.094Z,9.70
2019-04-03T13:00:10.568Z,8.93
2019-04-03T13:05:10.985Z,10.10
2019-04-03T13:10:13.267Z,9.10
2019-04-03T13:15:15.899Z,11.13
2019-04-03T13:20:18.511Z,10.20
2019-04-03T13:25:22.132Z,12.20
2019-04-03T13:30:23.791Z,13.07
2019-04-03T13:35:26.567Z,10.63
2019-04-03T13:40:28.975Z,11.13
2019-04-03T13:45:31.978Z,10.20
2019-04-03T13:50:34.703Z,11.23
2019-04-03T13:55:39.684Z,11.00
2019-04-03T14:00:39.648Z,9.20
2019-04-03T14:05:43.369Z,10.60
2019-04-03T14:10:45.097Z,12.60
2019-04-03T14:15:47.409Z,8.77
2019-04-03T14:20:51.379Z,8.73
2019-04-03T14:26:03.085Z,9.87
2019-04-03T14:30:55.445Z,10.37
2019-04-03T14:35:58.068Z,9.93
2019-04-03T14:41:00.814Z,9.00
2019-04-03T14:51:06.288Z,13.47
2019-04-03T14:56:06.263Z,10.00
2019-04-03T15:01:08.851Z,11.70
2019-04-03T15:06:13.993Z,9.97
2019-04-03T15:11:14.560Z,10.33
2019-04-03T15:16:16.680Z,9.33
2019-04-03T15:21:22.202Z,7.97
2019-04-03T15:26:22.931Z,9.43
2019-04-03T15:31:24.688Z,9.70
2019-04-03T15:36:27.667Z,9.30
2019-04-03T15:41:33.127Z,8.10
2019-04-03T15:46:34.347Z,9.40
2019-04-03T15:51:38.174Z,9.60
2019-04-03T15:56:37.947Z,9.37
2019-04-03T16:01:40.629Z,10.07
2019-04-03T16:06:43.825Z,8.97
2019-04-03T16:11:46.120Z,10.30
2019-04-03T16:16:49.202Z,12.13
2019-04-03T16:21:51.629Z,59.60
2019-04-03T16:26:56.228Z,8.47
2019-04-03T16:31:56.484Z,9.40
2019-04-03T16:36:59.045Z,7.80
2019-04-03T16:42:01.674Z,4.73
2019-04-03T16:47:04.276Z,3.40
2019-04-03T16:52:07.046Z,3.70
2019-04-03T16:57:09.495Z,3.17
2019-04-03T17:02:12.290Z,4.90
2019-04-03T17:07:14.749Z,4.10
2019-04-03T17:12:17.658Z,4.83
2019-04-03T17:17:20.053Z,1.90
2019-04-03T17:22:22.815Z,3.17
2019-04-03T17:27:25.411Z,2.27
2019-04-03T17:32:29.929Z,2.27
2019-04-03T17:37:31.019Z,2.37
2019-04-03T17:42:33.300Z,2.97
2019-04-03T17:47:35.847Z,3.30
2019-04-03T17:52:38.505Z,3.50
2019-04-03T17:57:44.387Z,3.43
2019-04-03T18:02:43.990Z,3.17
2019-04-03T18:07:46.572Z,3.47
2019-04-03T18:12:50.170Z,3.17
2019-04-03T18:17:51.732Z,3.23
2019-04-03T18:22:54.308Z,4.23
2019-04-03T18:27:56.961Z,2.83
2019-04-03T18:32:59.551Z,2.20
2019-04-03T18:38:02.123Z,2.53
2019-04-03T18:43:04.678Z,2.07
2019-04-03T18:48:07.426Z,2.67
2019-04-03T18:53:10.376Z,2.43
2019-04-03T18:58:12.699Z,2.00
2019-04-03T19:03:15.318Z,1.93
2019-04-03T19:08:18.698Z,2.53
2019-04-03T19:13:20.582Z,4.00
2019-04-03T19:18:23.250Z,3.03
2019-04-03T19:23:26.506Z,3.63
2019-04-03T19:28:29.067Z,2.70
2019-04-03T19:33:31.631Z,7.57
2019-04-03T19:38:35.828Z,9.17
2019-04-03T19:43:36.784Z,9.93
2019-04-03T19:48:39.384Z,9.57
2019-04-03T19:53:44.300Z,9.63
2019-04-03T19:58:44.533Z,11.07
2019-04-03T20:03:47.286Z,8.90
2019-04-03T20:08:49.992Z,8.20
2019-04-03T20:13:52.550Z,6.90
2019-04-03T20:18:56.515Z,7.30
2019-04-03T20:23:57.722Z,5.87
2019-04-03T20:29:02.068Z,5.10
2019-04-03T20:34:03.115Z,5.23
2019-04-03T20:39:07.663Z,5.23
2019-04-03T20:44:10.175Z,5.17
2019-04-03T20:49:12.777Z,5.53
2019-04-03T20:54:15.397Z,4.20
2019-04-03T20:59:18.035Z,3.03
2019-04-03T21:04:20.570Z,3.43
2019-04-03T21:09:23.158Z,3.83
2019-04-03T21:14:25.781Z,4.27
2019-04-03T21:19:28.327Z,3.37
2019-04-03T21:24:30.871Z,3.43
2019-04-03T21:29:33.506Z,3.50
2019-04-03T21:34:36.067Z,3.77
2019-04-03T21:39:38.634Z,3.33
2019-04-03T21:44:41.205Z,4.33
2019-04-03T21:49:43.685Z,3.67
2019-04-03T21:54:46.269Z,3.27
2019-04-03T21:59:48.770Z,3.53
2019-04-03T22:04:53.555Z,3.43
2019-04-03T22:09:53.948Z,3.67
2019-04-03T22:14:56.523Z,5.20
2019-04-03T22:19:59.323Z,4.93
2019-04-03T22:25:01.604Z,4.93
2019-04-03T22:30:04.674Z,4.33
2019-04-03T22:35:07.513Z,4.27
2019-04-03T22:40:10.832Z,4.60
2019-04-03T22:45:12.772Z,4.47
2019-04-03T22:50:15.340Z,3.57
2019-04-03T22:55:17.869Z,3.67
2019-04-03T23:00:20.502Z,4.80
2019-04-03T23:05:23.123Z,4.33
2019-04-03T23:10:30.691Z,4.27
2019-04-03T23:15:33.310Z,4.50
2019-04-03T23:20:35.916Z,5.40
2019-04-03T23:25:38.534Z,4.97
2019-04-03T23:30:41.520Z,4.77
2019-04-03T23:35:43.716Z,5.20
2019-04-03T23:40:46.268Z,5.70
2019-04-03T23:45:48.806Z,5.50
2019-04-03T23:50:52.793Z,5.27
2019-04-03T23:55:53.979Z,6.80
